createdAt,value
2022-09-04T00:00:24.455Z,100748.59
2022-09-04T00:03:28.914Z,100758.22
2022-09-04T00:06:19.579Z,100758.16
2022-09-04T00:09:12.774Z,100752.91
2022-09-04T00:12:07.435Z,100756.38
2022-09-04T00:15:01.175Z,100754.66
2022-09-04T00:17:56.416Z,100762.59
2022-09-04T00:20:53.518Z,100760.84
2022-09-04T00:23:41.410Z,100754.81
2022-09-04T00:27:00.113Z,100760.84
2022-09-04T00:29:51.246Z,100765.31
2022-09-04T00:32:55.969Z,100752.09
2022-09-04T00:35:47.521Z,100768.00
2022-09-04T00:38:47.602Z,100763.63
2022-09-04T00:41:44.711Z,100766.31
2022-09-04T00:44:47.556Z,100772.34
2022-09-04T00:47:42.489Z,100769.72
2022-09-04T00:50:46.093Z,100780.28
2022-09-04T00:54:09.159Z,100782.00
2022-09-04T00:57:29.516Z,100780.25
2022-09-04T01:00:22.473Z,100778.50
2022-09-04T01:03:07.668Z,100775.06
2022-09-04T01:06:08.349Z,100786.41
2022-09-04T01:09:32.015Z,100783.66
2022-09-04T01:12:37.702Z,100799.53
2022-09-04T01:15:48.935Z,100804.84
2022-09-04T01:18:54.176Z,100804.06
2022-09-04T01:21:48.361Z,100805.88
2022-09-04T01:24:48.210Z,100794.44
2022-09-04T01:28:18.865Z,100812.06
2022-09-04T01:31:26.733Z,100811.13
2022-09-04T01:34:36.845Z,100812.03
2022-09-04T01:37:59.285Z,100799.78
2022-09-04T01:40:53.648Z,100804.28
2022-09-04T01:43:40.069Z,100816.53
2022-09-04T01:46:49.842Z,100817.34
2022-09-04T01:49:42.311Z,100813.03
2022-09-04T01:52:38.525Z,100798.22
2022-09-04T01:55:35.985Z,100803.44
2022-09-04T01:58:39.331Z,100790.38
2022-09-04T02:01:36.904Z,100799.97
2022-09-04T02:04:38.445Z,100803.50
2022-09-04T02:07:50.611Z,100808.69
2022-09-04T02:11:03.933Z,100805.22
2022-09-04T02:14:11.140Z,100808.78
2022-09-04T02:17:09.250Z,100810.47
2022-09-04T02:19:54.190Z,100815.72
2022-09-04T02:22:58.872Z,100807.88
2022-09-04T02:26:10.024Z,100819.25
2022-09-04T02:29:15.691Z,100821.94
2022-09-04T02:32:21.307Z,100806.22
2022-09-04T02:35:16.493Z,100806.22
2022-09-04T02:38:10.683Z,100826.25
2022-09-04T02:41:22.209Z,100814.06
2022-09-04T02:44:24.357Z,100816.81
2022-09-04T02:47:21.485Z,100847.41
2022-09-04T02:50:40.842Z,100848.19
2022-09-04T02:54:02.539Z,100845.66
2022-09-04T02:57:08.815Z,100847.34
2022-09-04T03:00:08.298Z,100840.41
2022-09-04T03:03:09.716Z,100859.56
2022-09-04T03:06:03.949Z,100855.22
2022-09-04T03:09:01.843Z,100855.25
2022-09-04T03:12:12.631Z,100853.50
2022-09-04T03:15:31.729Z,100843.03
2022-09-04T03:18:55.583Z,100846.53
2022-09-04T03:21:59.620Z,100849.13
2022-09-04T03:25:05.854Z,100847.38
2022-09-04T03:27:51.020Z,100853.47
2022-09-04T03:30:38.369Z,100856.13
2022-09-04T03:33:48.752Z,100840.44
2022-09-04T03:36:39.837Z,100829.97
2022-09-04T03:39:49.576Z,100843.03
2022-09-04T03:42:47.855Z,100837.81
2022-09-04T03:45:51.891Z,100838.66
2022-09-04T03:48:55.030Z,100855.22
2022-09-04T03:51:58.720Z,100857.81
2022-09-04T03:55:02.099Z,100880.44
2022-09-04T03:57:56.194Z,100867.38
2022-09-04T04:01:10.310Z,100864.78
2022-09-04T04:04:52.810Z,100879.59
2022-09-04T04:07:40.389Z,100873.53
2022-09-04T04:10:43.716Z,100887.44
2022-09-04T04:14:05.398Z,100883.97
2022-09-04T04:17:05.476Z,100890.06
2022-09-04T04:19:59.883Z,100901.34
2022-09-04T04:23:09.991Z,100906.56
2022-09-04T04:26:16.962Z,100903.09
2022-09-04T04:29:11.580Z,100907.41
2022-09-04T04:32:06.525Z,100901.34
2022-09-04T04:35:02.849Z,100905.69
2022-09-04T04:38:02.664Z,100897.00
2022-09-04T04:41:00.221Z,100898.72
2022-09-04T04:44:15.536Z,100923.06
2022-09-04T04:47:14.504Z,100930.00
2022-09-04T04:50:12.217Z,100938.72
2022-09-04T04:53:24.740Z,100921.31
2022-09-04T04:56:24.208Z,100936.97
2022-09-04T04:59:25.906Z,100911.75
2022-09-04T05:02:22.210Z,100943.91
2022-09-04T05:05:17.455Z,100936.94
2022-09-04T05:08:20.562Z,100935.25
2022-09-04T05:11:31.901Z,100937.84
2022-09-04T05:14:39.725Z,100934.38
2022-09-04T05:17:36.410Z,100942.19
2022-09-04T05:20:38.831Z,100933.53
2022-09-04T05:23:44.937Z,100928.31
2022-09-04T05:26:41.299Z,100926.56
2022-09-04T05:29:39.097Z,100927.47
2022-09-04T05:32:38.429Z,100929.19
2022-09-04T05:35:40.185Z,100925.66
2022-09-04T05:38:36.029Z,100934.38
2022-09-04T05:41:28.342Z,100935.25
2022-09-04T05:44:27.783Z,100934.34
2022-09-04T05:47:34.360Z,100943.91
2022-09-04T05:50:34.515Z,100945.66
2022-09-04T05:53:38.972Z,100941.28
2022-09-04T05:56:39.513Z,100925.59
2022-09-04T05:59:44.089Z,100935.13
2022-09-04T06:02:51.586Z,100947.31
2022-09-04T06:06:06.198Z,100935.91
2022-09-04T06:08:57.221Z,100947.25
2022-09-04T06:12:09.404Z,100957.75
2022-09-04T06:15:10.996Z,100955.06
2022-09-04T06:18:07.799Z,100955.03
2022-09-04T06:21:24.460Z,100953.25
2022-09-04T06:24:21.711Z,100945.28
2022-09-04T06:27:20.250Z,100967.09
2022-09-04T06:30:07.084Z,100951.28
2022-09-04T06:33:31.627Z,100949.34
2022-09-04T06:36:32.149Z,100955.41
2022-09-04T06:39:37.662Z,100957.09
2022-09-04T06:42:52.677Z,100967.44
2022-09-04T06:46:02.655Z,100964.81
2022-09-04T06:48:58.851Z,100961.09
2022-09-04T06:52:45.933Z,100954.63
2022-09-04T06:55:31.376Z,100957.91
2022-09-04T06:58:22.602Z,100946.47
2022-09-04T07:01:24.965Z,100947.97
2022-09-04T07:04:27.374Z,100944.75
2022-09-04T07:07:18.180Z,100940.06
2022-09-04T07:10:29.082Z,100931.69
2022-09-04T07:13:20.163Z,100937.25
2022-09-04T07:16:26.076Z,100959.44
2022-09-04T07:19:48.000Z,100927.13
2022-09-04T07:22:51.064Z,100917.47
2022-09-04T07:26:05.345Z,100925.00
2022-09-04T07:29:19.115Z,100918.00
2022-09-04T07:32:11.587Z,100935.31
2022-09-04T07:35:05.001Z,100939.53
2022-09-04T07:37:59.833Z,100945.44
2022-09-04T07:40:51.421Z,100932.16
2022-09-04T07:43:42.724Z,100955.09
2022-09-04T07:47:01.685Z,100928.53
2022-09-04T07:50:00.379Z,100938.94
2022-09-04T07:53:06.352Z,100943.28
2022-09-04T07:56:19.635Z,100942.25
2022-09-04T07:59:27.427Z,100944.97
2022-09-04T08:02:28.275Z,100945.28
2022-09-04T08:05:19.422Z,100957.47
2022-09-04T08:08:04.645Z,100965.91
2022-09-04T08:11:13.398Z,100961.50
2022-09-04T08:14:22.102Z,100961.50
2022-09-04T08:17:45.154Z,100968.50
2022-09-04T08:21:00.477Z,100974.66
2022-09-04T08:24:04.140Z,100977.16
2022-09-04T08:27:23.405Z,101023.78
2022-09-04T08:30:10.675Z,100977.81
2022-09-04T08:33:23.795Z,100997.16
2022-09-04T08:36:15.768Z,101011.66
2022-09-04T08:39:19.277Z,100984.66
2022-09-04T08:42:25.650Z,100979.00
2022-09-04T08:45:42.017Z,101003.59
2022-09-04T08:48:42.901Z,101031.63
2022-09-04T08:51:46.549Z,101030.78
2022-09-04T08:55:06.713Z,101006.75
2022-09-04T08:58:16.328Z,101026.69
2022-09-04T09:01:23.559Z,100998.97
2022-09-04T09:04:24.208Z,101022.22
2022-09-04T09:07:28.180Z,101007.50
2022-09-04T09:10:37.210Z,101021.44
2022-09-04T09:13:47.636Z,101023.31
2022-09-04T09:16:59.094Z,101012.34
2022-09-04T09:20:07.949Z,101022.25
2022-09-04T09:23:33.169Z,101035.34
2022-09-04T09:26:29.051Z,101052.69
2022-09-04T09:30:02.060Z,101078.44
2022-09-04T09:33:25.049Z,101048.25
2022-09-04T09:36:55.263Z,101050.94
2022-09-04T09:39:55.654Z,101054.41
2022-09-04T09:43:08.972Z,101063.66
2022-09-04T09:46:21.465Z,101059.75
2022-09-04T09:49:31.961Z,101047.66
2022-09-04T09:52:26.087Z,101045.16
2022-09-04T09:55:20.199Z,101049.88
2022-09-04T09:58:33.737Z,101047.84
2022-09-04T10:01:24.962Z,101042.28
2022-09-04T10:04:34.250Z,101041.91
2022-09-04T10:07:22.457Z,101015.81
2022-09-04T10:10:45.125Z,101044.72
2022-09-04T10:13:45.557Z,101036.56
2022-09-04T10:17:08.613Z,101034.06
2022-09-04T10:20:17.649Z,101043.25
2022-09-04T10:23:11.954Z,101015.88
2022-09-04T10:26:36.516Z,101024.94
2022-09-04T10:29:43.028Z,101022.97
2022-09-04T10:35:46.205Z,101046.81
2022-09-04T10:38:44.877Z,101029.31
2022-09-04T10:41:57.164Z,101025.75
2022-09-04T10:45:10.708Z,101035.34
2022-09-04T10:48:28.442Z,101031.28
2022-09-04T10:51:35.145Z,101029.16
2022-09-04T10:54:35.953Z,101032.94
2022-09-04T10:57:28.914Z,101018.19
2022-09-04T11:00:21.181Z,101014.44
2022-09-04T11:03:09.594Z,101006.66
2022-09-04T11:06:16.676Z,101003.47
2022-09-04T11:09:20.292Z,101004.47
2022-09-04T11:12:11.648Z,101009.25
2022-09-04T11:15:52.681Z,101017.81
2022-09-04T11:19:02.424Z,101005.28
2022-09-04T11:22:24.946Z,101000.44
2022-09-04T11:25:32.782Z,101001.38
2022-09-04T11:28:43.116Z,101000.03
2022-09-04T11:31:40.521Z,101008.50
2022-09-04T11:35:03.499Z,101010.75
2022-09-04T11:37:54.649Z,101003.09
2022-09-04T11:41:04.193Z,101018.50
2022-09-04T11:44:09.491Z,101022.16
2022-09-04T11:46:57.564Z,101014.00
2022-09-04T11:50:01.437Z,100984.63
2022-09-04T11:52:52.547Z,100971.97
2022-09-04T11:56:06.608Z,100969.22
2022-09-04T11:59:46.326Z,100981.69
2022-09-04T12:02:55.750Z,100981.19
2022-09-04T12:05:49.973Z,100949.28
2022-09-04T12:09:05.749Z,100937.03
2022-09-04T12:12:28.156Z,100952.38
2022-09-04T12:15:40.805Z,100963.50
2022-09-04T12:18:37.979Z,100941.38
2022-09-04T12:21:52.665Z,100924.53
2022-09-04T12:24:48.431Z,100937.66
2022-09-04T12:27:57.621Z,100966.69
2022-09-04T12:31:31.078Z,100941.75
2022-09-04T12:34:44.264Z,100924.66
2022-09-04T12:37:44.770Z,100917.97
2022-09-04T12:40:55.998Z,100942.81
2022-09-04T12:44:38.515Z,100930.88
2022-09-04T12:47:35.617Z,100955.28
2022-09-04T12:50:59.268Z,100961.25
2022-09-04T12:54:10.069Z,100973.16
2022-09-04T12:57:21.636Z,100961.63
2022-09-04T13:00:10.452Z,100963.31
2022-09-04T13:03:33.236Z,100968.50
2022-09-04T13:06:57.761Z,100972.50
2022-09-04T13:09:59.758Z,100956.69
2022-09-04T13:12:51.151Z,100954.66
2022-09-04T13:15:55.237Z,100954.19
2022-09-04T13:19:13.365Z,100950.38
2022-09-04T13:22:18.095Z,100965.34
2022-09-04T13:25:22.828Z,100983.56
2022-09-04T13:28:49.442Z,100982.69
2022-09-04T13:31:49.997Z,100991.34
2022-09-04T13:34:41.088Z,101001.88
2022-09-04T13:37:29.093Z,101005.91
2022-09-04T13:40:49.642Z,100997.28
2022-09-04T13:44:24.435Z,100992.63
2022-09-04T13:47:24.523Z,100984.31
2022-09-04T13:50:39.895Z,100988.00
2022-09-04T13:53:35.449Z,101003.28
2022-09-04T13:56:31.609Z,100981.94
2022-09-04T13:59:18.937Z,101001.94
2022-09-04T14:02:10.794Z,100991.63
2022-09-04T14:05:09.264Z,101012.25
2022-09-04T14:08:01.286Z,101003.44
2022-09-04T14:10:59.387Z,101009.06
2022-09-04T14:14:16.509Z,100979.47
2022-09-04T14:17:01.627Z,100998.75
2022-09-04T14:20:28.651Z,100992.00
2022-09-04T14:23:19.474Z,100997.34
2022-09-04T14:26:18.800Z,100990.28
2022-09-04T14:29:17.907Z,100978.31
2022-09-04T14:32:12.514Z,100996.06
2022-09-04T14:35:01.401Z,100980.53
2022-09-04T14:38:08.769Z,100969.03
2022-09-04T14:40:59.032Z,100971.00
2022-09-04T14:44:13.155Z,100974.28
2022-09-04T14:47:04.721Z,101003.03
2022-09-04T14:49:51.577Z,100975.44
2022-09-04T14:52:45.964Z,100979.19
2022-09-04T14:55:38.254Z,100980.03
2022-09-04T14:58:34.582Z,100988.59
2022-09-04T15:01:22.273Z,100990.09
2022-09-04T15:04:18.988Z,100989.34
2022-09-04T15:07:30.316Z,101005.72
2022-09-04T15:10:21.898Z,100996.56
2022-09-04T15:13:28.371Z,100982.44
2022-09-04T15:16:19.966Z,100948.06
2022-09-04T15:19:23.444Z,100982.00
2022-09-04T15:22:18.421Z,100966.53
2022-09-04T15:25:11.952Z,100975.28
2022-09-04T15:28:05.995Z,100959.16
2022-09-04T15:31:14.667Z,100963.22
2022-09-04T15:34:03.876Z,100974.94
2022-09-04T15:36:49.736Z,100968.72
2022-09-04T15:40:00.266Z,100975.22
2022-09-04T15:42:56.500Z,100971.63
2022-09-04T15:45:46.524Z,100966.00
2022-09-04T15:48:41.069Z,100975.47
2022-09-04T15:51:37.916Z,100960.69
2022-09-04T15:55:09.080Z,100978.34
2022-09-04T15:58:03.329Z,100982.34
2022-09-04T16:01:03.658Z,100956.63
2022-09-04T16:03:51.697Z,100969.53
2022-09-04T16:06:49.775Z,101004.44
2022-09-04T16:10:01.645Z,101005.44
2022-09-04T16:12:56.388Z,101005.25
2022-09-04T16:15:44.632Z,101021.03
2022-09-04T16:18:39.229Z,101006.59
2022-09-04T16:21:37.373Z,101009.34
2022-09-04T16:24:33.852Z,101030.09
2022-09-04T16:27:27.789Z,101027.00
2022-09-04T16:30:34.329Z,101005.44
2022-09-04T16:33:43.814Z,101013.63
2022-09-04T16:36:43.249Z,101019.06
2022-09-04T16:39:38.600Z,101004.19
2022-09-04T16:42:31.752Z,101006.66
2022-09-04T16:45:25.884Z,101009.16
2022-09-04T16:48:34.029Z,101008.44
2022-09-04T16:51:39.476Z,101007.44
2022-09-04T16:54:34.751Z,101034.31
2022-09-04T16:57:36.806Z,101070.47
2022-09-04T17:00:22.241Z,101036.44
2022-09-04T17:03:18.464Z,101069.03
2022-09-04T17:06:16.813Z,101063.56
2022-09-04T17:09:44.489Z,101065.91
2022-09-04T17:12:41.719Z,101052.56
2022-09-04T17:15:53.041Z,101059.34
2022-09-04T17:18:49.437Z,101068.97
2022-09-04T17:23:57.682Z,101062.44
2022-09-04T17:29:08.058Z,101108.13
2022-09-04T17:29:11.496Z,101102.09
2022-09-04T17:31:56.282Z,101060.88
2022-09-04T17:40:32.127Z,101050.50
2022-09-04T17:40:40.548Z,101094.47
2022-09-04T17:42:08.256Z,101075.63
2022-09-04T17:44:55.375Z,101095.13
2022-09-04T17:47:42.590Z,101094.22
2022-09-04T17:50:28.007Z,101118.78
2022-09-04T17:53:29.769Z,101075.44
2022-09-04T17:56:41.341Z,101127.63
2022-09-04T17:59:29.660Z,101102.53
2022-09-04T18:02:22.927Z,101120.84
2022-09-04T18:05:26.797Z,101072.81
2022-09-04T18:08:33.252Z,101108.53
2022-09-04T18:11:29.296Z,101112.81
2022-09-04T18:14:18.803Z,101075.56
2022-09-04T18:17:11.705Z,101121.53
2022-09-04T18:20:09.507Z,101122.66
2022-09-04T18:23:16.614Z,101115.22
2022-09-04T18:26:09.091Z,101114.91
2022-09-04T18:29:04.202Z,101120.38
2022-09-04T18:37:21.859Z,101102.97
2022-09-04T18:37:22.869Z,101114.09
2022-09-04T18:39:08.968Z,101123.13
2022-09-04T18:50:22.702Z,101130.97
2022-09-04T18:50:39.645Z,101144.22
2022-09-04T18:50:46.487Z,101149.41
2022-09-04T18:51:46.167Z,101148.50
2022-09-04T18:54:40.699Z,101119.50
2022-09-04T18:57:31.908Z,101132.28
2022-09-04T19:00:28.364Z,101129.13
2022-09-04T19:03:25.238Z,101157.97
2022-09-04T19:06:14.898Z,101151.16
2022-09-04T19:09:09.258Z,101167.47
2022-09-04T19:12:00.939Z,101164.94
2022-09-04T19:14:48.450Z,101148.06
2022-09-04T19:17:40.408Z,101125.16
2022-09-04T19:20:37.820Z,101123.75
2022-09-04T19:23:34.226Z,101117.19
2022-09-04T19:26:41.134Z,101118.75
2022-09-04T19:29:41.512Z,101114.09
2022-09-04T19:32:40.195Z,101143.16
2022-09-04T19:35:52.167Z,101136.91
2022-09-04T19:44:13.586Z,101131.56
2022-09-04T19:46:06.803Z,101118.25
2022-09-04T19:46:26.190Z,101116.50
2022-09-04T19:48:16.726Z,101141.53
2022-09-04T19:53:33.748Z,101117.69
2022-09-04T19:54:20.116Z,101118.19
2022-09-04T19:57:32.191Z,101156.06
2022-09-04T20:00:42.762Z,101149.03
2022-09-04T20:03:45.732Z,101163.94
2022-09-04T20:06:39.559Z,101179.06
2022-09-04T20:09:33.911Z,101172.31
2022-09-04T20:12:50.688Z,101184.88
2022-09-04T20:15:43.669Z,101191.22
2022-09-04T20:18:38.870Z,101177.25
2022-09-04T20:21:27.199Z,101178.13
2022-09-04T20:24:24.803Z,101167.34
2022-09-04T20:27:55.508Z,101162.81
2022-09-04T20:30:45.018Z,101151.84
2022-09-04T20:33:35.225Z,101158.81
2022-09-04T20:36:28.885Z,101156.44
2022-09-04T20:39:34.770Z,101154.06
2022-09-04T20:42:39.284Z,101185.19
2022-09-04T20:49:09.532Z,101178.97
2022-09-04T20:52:54.579Z,101160.38
2022-09-04T20:52:55.268Z,101158.41
2022-09-04T20:55:18.136Z,101161.09
2022-09-04T21:03:07.524Z,101186.53
2022-09-04T21:03:21.363Z,101201.69
2022-09-04T21:05:33.444Z,101186.41
2022-09-04T21:08:41.633Z,101201.84
2022-09-04T21:11:50.749Z,101196.16
2022-09-04T21:14:45.716Z,101190.75
2022-09-04T21:17:53.231Z,101183.69
2022-09-04T21:20:59.981Z,101188.09
2022-09-04T21:24:14.806Z,101187.03
2022-09-04T21:27:29.395Z,101168.25
2022-09-04T21:30:17.967Z,101169.88
2022-09-04T21:33:27.835Z,101176.09
2022-09-04T21:36:26.136Z,101159.34
2022-09-04T21:39:48.671Z,101188.19
2022-09-04T21:43:03.166Z,101186.47
2022-09-04T21:46:04.657Z,101214.78
2022-09-04T21:49:07.971Z,101231.84
2022-09-04T21:51:59.476Z,101219.53
2022-09-04T21:58:21.223Z,101228.56
2022-09-04T22:02:38.282Z,101240.00
2022-09-04T22:02:44.605Z,101236.41
2022-09-04T22:05:26.821Z,101230.38
2022-09-04T22:13:29.561Z,101237.69
2022-09-04T22:13:43.194Z,101238.56
2022-09-04T22:15:17.844Z,101248.50
2022-09-04T22:18:32.170Z,101231.66
2022-09-04T22:21:35.666Z,101224.53
2022-09-04T22:24:58.853Z,101238.81
2022-09-04T22:28:09.675Z,101233.59
2022-09-04T22:31:04.104Z,101255.88
2022-09-04T22:34:17.578Z,101262.97
2022-09-04T22:37:02.572Z,101256.13
2022-09-04T22:40:12.765Z,101255.22
2022-09-04T22:43:22.618Z,101255.19
2022-09-04T22:46:34.326Z,101257.91
2022-09-04T22:49:58.328Z,101262.38
2022-09-04T22:53:12.651Z,101258.81
2022-09-04T22:56:23.417Z,101255.28
2022-09-04T22:59:26.774Z,101240.38
2022-09-04T23:02:15.321Z,101240.41
2022-09-04T23:05:41.635Z,101230.63
2022-09-04T23:13:48.231Z,101231.25
2022-09-04T23:13:59.443Z,101226.59
2022-09-04T23:15:55.643Z,101199.63
2022-09-04T23:25:41.701Z,101236.75
2022-09-04T23:26:43.052Z,101251.84
2022-09-04T23:26:49.987Z,101263.06
2022-09-04T23:29:44.813Z,101252.81
2022-09-04T23:32:48.968Z,101260.66
2022-09-04T23:35:46.249Z,101253.69
2022-09-04T23:38:40.632Z,101244.13
2022-09-04T23:41:57.034Z,101244.94
2022-09-04T23:45:21.378Z,101246.81
2022-09-04T23:48:52.313Z,101244.13
2022-09-04T23:51:40.457Z,101245.00
2022-09-04T23:54:52.143Z,101254.66
2022-09-04T23:57:58.892Z,101258.13
